Big Bear Station Historical Data
Daily Summary for April 13, 2017 Units:  English    Metric   Both
« Previous Day
Next Day »
Daily Weekly Monthly Yearly Custom
  High: Low: Average:
Temperature: 55.4 °F 31.6 °F 42.7 °F
Dew Point: 36.4 °F 13.4 °F 27 °F
Humidity: 89 % 26 % 57 %
Wind Speed: 13.0 mph 0.0 mph 3.7 mph
Wind Gust: 20.2 mph - -
Wind:- - SW
Pressure: 30.13 in 30.04 in -
Precipitation: 0.00 in    
Historical Graphs
 
 
Tabular Data for April 13, 2017
Time Temperature Dew Point Pressure Wind Wind Speed Wind Gust Humidity Rainfall Rate (Hourly)
00:09 41.2 °F 28.0 °F 30.13 in Calm   -999.0 mph 59 % 0 in
00:24 39.6 °F 26.0 °F 30.13 in SSE 2.2 mph -999.0 mph 58 % 0 in
00:39 38.8 °F 26.5 °F 30.12 in South 1.7 mph -999.0 mph 61 % 0 in
00:55 38.3 °F 25.2 °F 30.12 in SE 1.7 mph -999.0 mph 59 % 0 in
01:10 38.1 °F 27.0 °F 30.11 in South 1.7 mph -999.0 mph 64 % 0 in
01:25 37.4 °F 24.0 °F 30.11 in South 2.2 mph -999.0 mph 58 % 0 in
01:40 37.0 °F 24.0 °F 30.11 in SSE 1.7 mph -999.0 mph 59 % 0 in
01:56 37.0 °F 24.0 °F 30.10 in Calm   -999.0 mph 59 % 0 in
02:11 36.9 °F 24.3 °F 30.10 in SSE 1.7 mph -999.0 mph 60 % 0 in
02:26 37.0 °F 22.8 °F 30.10 in South 2.2 mph -999.0 mph 56 % 0 in
02:41 36.7 °F 22.9 °F 30.10 in South 1.7 mph -999.0 mph 57 % 0 in
02:56 36.5 °F 23.1 °F 30.09 in SSE 2.2 mph -999.0 mph 58 % 0 in
03:12 36.5 °F 21.9 °F 30.09 in SSE 2.2 mph -999.0 mph 55 % 0 in
03:27 36.0 °F 21.4 °F 30.09 in SSE 2.2 mph -999.0 mph 55 % 0 in
03:42 36.7 °F 22.0 °F 30.08 in South 1.1 mph -999.0 mph 55 % 0 in
03:57 36.7 °F 22.0 °F 30.08 in West 1.7 mph -999.0 mph 55 % 0 in
04:13 36.9 °F 21.8 °F 30.08 in Calm   -999.0 mph 54 % 0 in
04:28 37.2 °F 20.7 °F 30.07 in ENE 1.7 mph -999.0 mph 51 % 0 in
04:43 37.9 °F 18.4 °F 30.07 in SSE 1.1 mph -999.0 mph 45 % 0 in
05:13 40.3 °F 16.1 °F 30.07 in NW 4.2 mph -999.0 mph 37 % 0 in
05:29 41.0 °F 14.1 °F 30.07 in NNW 2.7 mph -999.0 mph 33 % 0 in
05:44 40.3 °F 13.4 °F 30.06 in NNW 1.7 mph -999.0 mph 33 % 0 in
05:59 40.3 °F 14.1 °F 30.06 in Calm   -999.0 mph 34 % 0 in
06:14 39.9 °F 15.1 °F 30.06 in SE 1.7 mph -999.0 mph 36 % 0 in
06:29 40.8 °F 16.5 °F 30.06 in WSW 2.2 mph -999.0 mph 37 % 0 in
06:45 41.4 °F 17.7 °F 30.06 in North 3.7 mph -999.0 mph 38 % 0 in
07:00 41.7 °F 17.9 °F 30.06 in NW 6.3 mph -999.0 mph 38 % 0 in
07:16 43.0 °F 16.5 °F 30.06 in NW 4.7 mph -999.0 mph 34 % 0 in
07:31 43.7 °F 17.1 °F 30.06 in West 2.2 mph -999.0 mph 34 % 0 in
07:47 44.6 °F 15.8 °F 30.07 in SSW 4.7 mph -999.0 mph 31 % 0 in
08:02 45.9 °F 16.2 °F 30.06 in SW 2.7 mph -999.0 mph 30 % 0 in
08:17 46.6 °F 16.8 °F 30.07 in WNW 4.7 mph -999.0 mph 30 % 0 in
08:33 47.5 °F 16.0 °F 30.07 in NNW 3.2 mph -999.0 mph 28 % 0 in
08:48 48.6 °F 15.2 °F 30.07 in SW 3.7 mph -999.0 mph 26 % 0 in
09:03 48.9 °F 16.4 °F 30.07 in NNW 3.2 mph -999.0 mph 27 % 0 in
09:18 49.3 °F 15.8 °F 30.07 in SW 6.8 mph -999.0 mph 26 % 0 in
09:33 49.5 °F 16.0 °F 30.07 in NW 4.7 mph -999.0 mph 26 % 0 in
09:49 49.1 °F 19.0 °F 30.07 in SW 4.7 mph -999.0 mph 30 % 0 in
10:04 49.1 °F 19.7 °F 30.07 in South 7.8 mph -999.0 mph 31 % 0 in
10:19 49.8 °F 21.8 °F 30.07 in South 6.8 mph -999.0 mph 33 % 0 in
10:35 49.6 °F 22.4 °F 30.07 in West 7.3 mph -999.0 mph 34 % 0 in
10:50 50.7 °F 24.7 °F 30.07 in NNW 6.8 mph -999.0 mph 36 % 0 in
11:05 51.4 °F 23.2 °F 30.08 in North 6.3 mph -999.0 mph 33 % 0 in
11:20 53.1 °F 25.5 °F 30.08 in WNW 4.2 mph -999.0 mph 34 % 0 in
11:35 53.8 °F 26.8 °F 30.07 in West 2.7 mph -999.0 mph 35 % 0 in
11:51 54.1 °F 29.7 °F 30.07 in ESE 7.3 mph -999.0 mph 39 % 0 in
12:06 54.7 °F 31.5 °F 30.07 in SSW 2.7 mph -999.0 mph 41 % 0 in
12:21 55.4 °F 32.7 °F 30.07 in NNW 9.4 mph -999.0 mph 42 % 0 in
12:37 53.4 °F 34.2 °F 30.07 in SW 5.3 mph -999.0 mph 48 % 0 in
12:52 53.2 °F 35.0 °F 30.07 in WNW 5.8 mph -999.0 mph 50 % 0 in
13:07 52.7 °F 35.1 °F 30.07 in WNW 4.7 mph -999.0 mph 51 % 0 in
13:22 51.8 °F 33.2 °F 30.07 in NW 2.7 mph -999.0 mph 49 % 0 in
13:37 52.3 °F 34.2 °F 30.07 in NNE 6.3 mph -999.0 mph 50 % 0 in
13:53 51.8 °F 34.2 °F 30.07 in North 5.3 mph -999.0 mph 51 % 0 in
14:08 50.9 °F 33.9 °F 30.07 in NW 4.2 mph -999.0 mph 52 % 0 in
14:23 50.4 °F 34.4 °F 30.07 in NW 9.9 mph -999.0 mph 54 % 0 in
14:39 48.6 °F 35.3 °F 30.07 in SE 2.2 mph 20.2 mph 60 % 0 in
14:54 50.0 °F 35.4 °F 30.07 in South 2.2 mph -999.0 mph 57 % 0 in
15:09 48.4 °F 35.2 °F 30.06 in SE 4.7 mph -999.0 mph 60 % 0 in
15:24 46.8 °F 35.3 °F 30.06 in ESE 5.3 mph -999.0 mph 64 % 0 in
15:40 46.0 °F 36.0 °F 30.05 in East 2.7 mph -999.0 mph 68 % 0 in
15:55 46.4 °F 36.4 °F 30.05 in NNW 3.7 mph -999.0 mph 68 % 0 in
16:10 46.0 °F 35.3 °F 30.05 in WNW 6.8 mph -999.0 mph 66 % 0 in
16:25 45.9 °F 35.6 °F 30.05 in East 2.7 mph -999.0 mph 67 % 0 in
16:41 44.8 °F 35.6 °F 30.05 in NW 8.9 mph -999.0 mph 70 % 0 in
16:56 45.0 °F 35.8 °F 30.05 in North 4.2 mph -999.0 mph 70 % 0 in
17:11 44.6 °F 35.4 °F 30.05 in WSW 6.3 mph -999.0 mph 70 % 0 in
17:26 45.1 °F 35.5 °F 30.05 in North 9.4 mph -999.0 mph 69 % 0 in
17:42 45.7 °F 35.4 °F 30.05 in South 2.7 mph -999.0 mph 67 % 0 in
17:57 45.7 °F 36.1 °F 30.05 in SSE 4.7 mph -999.0 mph 69 % 0 in
18:12 45.1 °F 35.2 °F 30.04 in South 2.2 mph -999.0 mph 68 % 0 in
18:27 41.9 °F 34.2 °F 30.04 in SW 5.8 mph -999.0 mph 74 % 0 in
18:43 40.5 °F 33.9 °F 30.04 in SSW 3.7 mph -999.0 mph 77 % 0 in
18:58 39.4 °F 33.4 °F 30.04 in North 3.2 mph -999.0 mph 79 % 0 in
19:13 38.7 °F 33.4 °F 30.04 in NNW 2.2 mph -999.0 mph 81 % 0 in
19:28 37.9 °F 32.6 °F 30.04 in South 1.1 mph -999.0 mph 81 % 0 in
19:43 37.0 °F 31.4 °F 30.04 in SSW 4.7 mph -999.0 mph 80 % 0 in
19:59 36.5 °F 31.5 °F 30.04 in South 2.2 mph -999.0 mph 82 % 0 in
20:14 36.3 °F 31.9 °F 30.04 in ESE 2.7 mph -999.0 mph 84 % 0 in
20:29 36.1 °F 32.0 °F 30.04 in ESE 3.7 mph -999.0 mph 85 % 0 in
20:44 35.8 °F 31.7 °F 30.05 in ESE 1.7 mph -999.0 mph 85 % 0 in
20:59 35.4 °F 31.3 °F 30.05 in SSE 2.2 mph -999.0 mph 85 % 0 in
21:15 35.1 °F 31.6 °F 30.05 in West 5.3 mph -999.0 mph 87 % 0 in
21:30 34.9 °F 31.4 °F 30.05 in ESE 4.2 mph -999.0 mph 87 % 0 in
21:45 34.9 °F 31.1 °F 30.05 in SSE 2.2 mph -999.0 mph 86 % 0 in
22:00 34.5 °F 31.0 °F 30.05 in SSE 2.2 mph -999.0 mph 87 % 0 in
22:15 34.2 °F 31.0 °F 30.05 in NW 13.0 mph -999.0 mph 88 % 0 in
22:31 34.2 °F 31.3 °F 30.04 in NE 1.1 mph -999.0 mph 89 % 0 in
22:46 34.3 °F 31.4 °F 30.04 in Calm   -999.0 mph 89 % 0 in
23:01 34.0 °F 30.0 °F 30.04 in Calm   -999.0 mph 85 % 0 in
23:17 33.1 °F 28.2 °F 30.04 in SE 2.2 mph -999.0 mph 82 % 0 in
23:32 32.2 °F 28.2 °F 30.04 in SE 2.7 mph -999.0 mph 85 % 0 in
23:47 31.6 °F 27.3 °F 30.04 in SSE 2.7 mph -999.0 mph 84 % 0 in
Big Bear CA Weather
Compliments of Weather Underground - 1.5 mb